sensor_id;sensor_type;location;lat;lon;timestamp;pressure;altitude;pressure_sealevel;temperature;humidity
80401;BME280;69727;53.132;8.230;2024-02-23T00:00:48;98079.41;;;6.65;80.87
80401;BME280;69727;53.132;8.230;2024-02-23T00:03:14;98087.41;;;6.65;79.40
80401;BME280;69727;53.132;8.230;2024-02-23T00:05:39;98084.06;;;6.58;77.72
80401;BME280;69727;53.132;8.230;2024-02-23T00:08:06;98120.22;;;6.54;77.30
80401;BME280;69727;53.132;8.230;2024-02-23T00:10:31;98132.16;;;6.52;77.14
80401;BME280;69727;53.132;8.230;2024-02-23T00:12:57;98156.84;;;6.47;77.16
80401;BME280;69727;53.132;8.230;2024-02-23T00:15:22;98156.25;;;6.45;76.65
80401;BME280;69727;53.132;8.230;2024-02-23T00:17:49;98161.25;;;6.42;76.99
80401;BME280;69727;53.132;8.230;2024-02-23T00:20:15;98166.50;;;6.37;77.11
80401;BME280;69727;53.132;8.230;2024-02-23T00:22:40;98189.06;;;6.34;76.95
80401;BME280;69727;53.132;8.230;2024-02-23T00:25:06;98178.97;;;6.24;77.65
80401;BME280;69727;53.132;8.230;2024-02-23T00:27:31;98201.38;;;6.23;77.82
80401;BME280;69727;53.132;8.230;2024-02-23T00:29:57;98179.09;;;6.18;77.81
80401;BME280;69727;53.132;8.230;2024-02-23T00:32:22;98202.25;;;6.06;78.06
80401;BME280;69727;53.132;8.230;2024-02-23T00:34:48;98227.38;;;6.10;78.68
80401;BME280;69727;53.132;8.230;2024-02-23T00:37:13;98225.53;;;5.99;78.87
80401;BME280;69727;53.132;8.230;2024-02-23T00:39:38;98250.41;;;5.93;79.63
80401;BME280;69727;53.132;8.230;2024-02-23T00:42:04;98253.78;;;5.88;81.06
80401;BME280;69727;53.132;8.230;2024-02-23T00:44:29;98248.03;;;5.84;81.89
80401;BME280;69727;53.132;8.230;2024-02-23T00:46:55;98275.22;;;5.75;82.38
80401;BME280;69727;53.132;8.230;2024-02-23T00:49:23;98281.81;;;5.72;82.85
80401;BME280;69727;53.132;8.230;2024-02-23T00:51:48;98283.38;;;5.62;82.75
80401;BME280;69727;53.132;8.230;2024-02-23T00:54:13;98293.91;;;5.57;82.93
80401;BME280;69727;53.132;8.230;2024-02-23T00:56:39;98307.38;;;5.43;84.91
80401;BME280;69727;53.132;8.230;2024-02-23T00:59:04;98320.53;;;5.38;86.03
80401;BME280;69727;53.132;8.230;2024-02-23T01:01:30;98324.75;;;5.28;86.40
80401;BME280;69727;53.132;8.230;2024-02-23T01:03:57;98343.31;;;5.16;88.23
80401;BME280;69727;53.132;8.230;2024-02-23T01:06:23;98336.34;;;4.97;89.45
80401;BME280;69727;53.132;8.230;2024-02-23T01:08:49;98351.91;;;4.93;90.56
80401;BME280;69727;53.132;8.230;2024-02-23T01:11:15;98357.69;;;4.65;93.17
80401;BME280;69727;53.132;8.230;2024-02-23T01:13:40;98372.25;;;4.56;92.75
80401;BME280;69727;53.132;8.230;2024-02-23T01:16:05;98377.69;;;4.43;93.36
80401;BME280;69727;53.132;8.230;2024-02-23T01:18:31;98386.91;;;4.41;94.05
80401;BME280;69727;53.132;8.230;2024-02-23T01:20:56;98391.00;;;4.37;95.03
80401;BME280;69727;53.132;8.230;2024-02-23T01:23:22;98392.47;;;4.32;93.70
80401;BME280;69727;53.132;8.230;2024-02-23T01:25:48;98406.19;;;4.29;94.49
80401;BME280;69727;53.132;8.230;2024-02-23T01:28:13;98409.03;;;4.28;94.85
80401;BME280;69727;53.132;8.230;2024-02-23T01:30:38;98419.50;;;4.23;94.77
80401;BME280;69727;53.132;8.230;2024-02-23T01:33:04;98409.50;;;4.25;94.19
80401;BME280;69727;53.132;8.230;2024-02-23T01:35:29;98421.34;;;4.22;94.97
80401;BME280;69727;53.132;8.230;2024-02-23T01:37:55;98428.50;;;4.22;93.71
80401;BME280;69727;53.132;8.230;2024-02-23T01:40:20;98438.94;;;4.17;94.42
80401;BME280;69727;53.132;8.230;2024-02-23T01:42:46;98447.69;;;4.24;93.98
80401;BME280;69727;53.132;8.230;2024-02-23T01:45:11;98445.25;;;4.22;94.19
80401;BME280;69727;53.132;8.230;2024-02-23T01:47:37;98464.03;;;4.21;94.28
80401;BME280;69727;53.132;8.230;2024-02-23T01:50:03;98487.75;;;4.22;94.18
80401;BME280;69727;53.132;8.230;2024-02-23T01:52:29;98496.34;;;4.18;94.13
80401;BME280;69727;53.132;8.230;2024-02-23T01:54:55;98504.56;;;4.10;93.95
80401;BME280;69727;53.132;8.230;2024-02-23T01:57:21;98518.69;;;4.04;94.28
80401;BME280;69727;53.132;8.230;2024-02-23T01:59:48;98523.84;;;3.92;95.21
80401;BME280;69727;53.132;8.230;2024-02-23T02:02:15;98537.13;;;3.85;94.76
80401;BME280;69727;53.132;8.230;2024-02-23T02:04:40;98540.19;;;3.82;94.64
80401;BME280;69727;53.132;8.230;2024-02-23T02:07:06;98547.16;;;3.70;95.04
80401;BME280;69727;53.132;8.230;2024-02-23T02:09:32;98553.88;;;3.66;94.74
80401;BME280;69727;53.132;8.230;2024-02-23T02:11:57;98586.75;;;3.52;95.04
80401;BME280;69727;53.132;8.230;2024-02-23T02:14:23;98578.78;;;3.45;95.11
80401;BME280;69727;53.132;8.230;2024-02-23T02:16:48;98561.88;;;3.33;96.13
80401;BME280;69727;53.132;8.230;2024-02-23T02:19:14;98564.91;;;3.30;95.98
80401;BME280;69727;53.132;8.230;2024-02-23T02:21:40;98561.88;;;3.27;96.49
80401;BME280;69727;53.132;8.230;2024-02-23T02:24:06;98566.56;;;3.25;96.15
80401;BME280;69727;53.132;8.230;2024-02-23T02:26:31;98552.06;;;3.14;96.35
80401;BME280;69727;53.132;8.230;2024-02-23T02:28:57;98567.16;;;3.13;96.24
80401;BME280;69727;53.132;8.230;2024-02-23T02:31:22;98573.50;;;3.12;95.79
80401;BME280;69727;53.132;8.230;2024-02-23T02:33:48;98594.28;;;3.09;96.46
80401;BME280;69727;53.132;8.230;2024-02-23T02:36:13;98581.00;;;3.09;96.85
80401;BME280;69727;53.132;8.230;2024-02-23T02:38:39;98587.38;;;3.08;97.34
80401;BME280;69727;53.132;8.230;2024-02-23T02:41:04;98586.75;;;3.12;96.78
80401;BME280;69727;53.132;8.230;2024-02-23T02:43:30;98589.19;;;3.14;96.73
80401;BME280;69727;53.132;8.230;2024-02-23T02:45:56;98584.28;;;3.11;96.82
80401;BME280;69727;53.132;8.230;2024-02-23T02:48:23;98591.84;;;3.14;96.73
80401;BME280;69727;53.132;8.230;2024-02-23T02:50:48;98586.75;;;3.19;96.50
80401;BME280;69727;53.132;8.230;2024-02-23T02:53:15;98599.38;;;3.17;96.57
80401;BME280;69727;53.132;8.230;2024-02-23T02:55:42;98595.72;;;3.25;95.59
80401;BME280;69727;53.132;8.230;2024-02-23T02:58:08;98608.78;;;3.26;95.92
80401;BME280;69727;53.132;8.230;2024-02-23T03:00:34;98611.88;;;3.36;94.90
80401;BME280;69727;53.132;8.230;2024-02-23T03:02:59;98613.72;;;3.42;94.26
80401;BME280;69727;53.132;8.230;2024-02-23T03:05:24;98620.22;;;3.40;95.33
80401;BME280;69727;53.132;8.230;2024-02-23T03:07:50;98629.63;;;3.42;95.93
80401;BME280;69727;53.132;8.230;2024-02-23T03:10:15;98633.69;;;3.51;94.99
80401;BME280;69727;53.132;8.230;2024-02-23T03:12:41;98636.78;;;3.62;94.58
80401;BME280;69727;53.132;8.230;2024-02-23T03:15:07;98655.75;;;3.65;94.21
80401;BME280;69727;53.132;8.230;2024-02-23T03:17:32;98657.56;;;3.65;94.64
80401;BME280;69727;53.132;8.230;2024-02-23T03:19:58;98652.06;;;3.66;94.88
80401;BME280;69727;53.132;8.230;2024-02-23T03:22:24;98684.53;;;3.68;94.99
80401;BME280;69727;53.132;8.230;2024-02-23T03:24:49;98673.91;;;3.62;95.37
80401;BME280;69727;53.132;8.230;2024-02-23T03:27:15;98679.63;;;3.59;95.63
80401;BME280;69727;53.132;8.230;2024-02-23T03:29:40;98684.72;;;3.60;95.87
80401;BME280;69727;53.132;8.230;2024-02-23T03:32:06;98694.13;;;3.56;96.38
80401;BME280;69727;53.132;8.230;2024-02-23T03:34:32;98690.03;;;3.60;96.23
80401;BME280;69727;53.132;8.230;2024-02-23T03:36:57;98689.41;;;3.58;96.43
80401;BME280;69727;53.132;8.230;2024-02-23T03:39:27;98686.56;;;3.66;96.02
80401;BME280;69727;53.132;8.230;2024-02-23T03:41:53;98691.47;;;3.69;96.00
80401;BME280;69727;53.132;8.230;2024-02-23T03:44:19;98693.72;;;3.72;95.89
80401;BME280;69727;53.132;8.230;2024-02-23T03:46:44;98686.81;;;3.71;96.34
80401;BME280;69727;53.132;8.230;2024-02-23T03:49:10;98689.44;;;3.78;96.29
80401;BME280;69727;53.132;8.230;2024-02-23T03:51:37;98694.97;;;3.83;95.30
80401;BME280;69727;53.132;8.230;2024-02-23T03:54:04;98717.84;;;3.84;95.47
80401;BME280;69727;53.132;8.230;2024-02-23T03:56:30;98708.22;;;3.83;94.71
80401;BME280;69727;53.132;8.230;2024-02-23T03:58:55;98707.81;;;3.86;94.53
80401;BME280;69727;53.132;8.230;2024-02-23T04:01:20;98708.03;;;3.91;94.67
80401;BME280;69727;53.132;8.230;2024-02-23T04:03:46;98715.78;;;3.86;95.06
80401;BME280;69727;53.132;8.230;2024-02-23T04:06:11;98705.38;;;3.84;94.76
80401;BME280;69727;53.132;8.230;2024-02-23T04:08:37;98716.59;;;4.00;93.58
80401;BME280;69727;53.132;8.230;2024-02-23T04:11:02;98716.19;;;3.89;94.29
80401;BME280;69727;53.132;8.230;2024-02-23T04:13:28;98726.63;;;3.84;93.78
80401;BME280;69727;53.132;8.230;2024-02-23T04:15:53;98720.06;;;3.74;93.93
80401;BME280;69727;53.132;8.230;2024-02-23T04:18:19;98732.94;;;3.70;93.55
80401;BME280;69727;53.132;8.230;2024-02-23T04:20:44;98743.72;;;3.55;93.52
80401;BME280;69727;53.132;8.230;2024-02-23T04:23:10;98731.84;;;3.45;93.63
80401;BME280;69727;53.132;8.230;2024-02-23T04:25:35;98751.66;;;3.42;92.86
80401;BME280;69727;53.132;8.230;2024-02-23T04:28:01;98749.81;;;3.43;92.78
80401;BME280;69727;53.132;8.230;2024-02-23T04:30:26;98747.72;;;3.32;93.86
80401;BME280;69727;53.132;8.230;2024-02-23T04:32:51;98753.22;;;3.24;94.82
80401;BME280;69727;53.132;8.230;2024-02-23T04:35:17;98750.16;;;3.27;93.33
80401;BME280;69727;53.132;8.230;2024-02-23T04:37:45;98767.91;;;3.20;94.55
80401;BME280;69727;53.132;8.230;2024-02-23T04:40:11;98774.03;;;3.27;93.43
80401;BME280;69727;53.132;8.230;2024-02-23T04:42:37;98782.19;;;3.25;93.54
80401;BME280;69727;53.132;8.230;2024-02-23T04:45:04;98784.03;;;3.25;94.09
80401;BME280;69727;53.132;8.230;2024-02-23T04:47:30;98774.88;;;3.34;92.12
80401;BME280;69727;53.132;8.230;2024-02-23T04:49:55;98763.00;;;3.30;91.71
80401;BME280;69727;53.132;8.230;2024-02-23T04:52:20;98766.28;;;3.32;92.38
80401;BME280;69727;53.132;8.230;2024-02-23T04:54:46;98794.28;;;3.34;92.21
80401;BME280;69727;53.132;8.230;2024-02-23T04:57:11;98800.59;;;3.33;93.18
80401;BME280;69727;53.132;8.230;2024-02-23T04:59:36;98801.19;;;3.29;92.30
80401;BME280;69727;53.132;8.230;2024-02-23T05:02:02;98802.59;;;3.31;92.92
80401;BME280;69727;53.132;8.230;2024-02-23T05:04:27;98800.78;;;3.32;92.13
80401;BME280;69727;53.132;8.230;2024-02-23T05:06:53;98818.31;;;3.26;93.27
80401;BME280;69727;53.132;8.230;2024-02-23T05:09:18;98820.78;;;3.28;92.62
80401;BME280;69727;53.132;8.230;2024-02-23T05:11:45;98824.06;;;3.36;92.92
80401;BME280;69727;53.132;8.230;2024-02-23T05:14:12;98819.97;;;3.34;93.07
80401;BME280;69727;53.132;8.230;2024-02-23T05:16:38;98834.72;;;3.43;92.30
80401;BME280;69727;53.132;8.230;2024-02-23T05:19:03;98815.72;;;3.39;91.89
80401;BME280;69727;53.132;8.230;2024-02-23T05:21:28;98829.63;;;3.48;91.35
80401;BME280;69727;53.132;8.230;2024-02-23T05:23:54;98837.75;;;3.40;92.37
80401;BME280;69727;53.132;8.230;2024-02-23T05:26:19;98839.22;;;3.49;90.90
80401;BME280;69727;53.132;8.230;2024-02-23T05:28:45;98850.06;;;3.54;90.22
80401;BME280;69727;53.132;8.230;2024-02-23T05:31:10;98848.84;;;3.57;89.50
80401;BME280;69727;53.132;8.230;2024-02-23T05:33:36;98841.72;;;3.64;89.38
80401;BME280;69727;53.132;8.230;2024-02-23T05:36:04;98852.13;;;3.72;88.50
80401;BME280;69727;53.132;8.230;2024-02-23T05:38:29;98852.97;;;3.72;88.58
80401;BME280;69727;53.132;8.230;2024-02-23T05:40:55;98863.16;;;3.69;89.01
80401;BME280;69727;53.132;8.230;2024-02-23T05:43:21;98871.81;;;3.84;88.54
80401;BME280;69727;53.132;8.230;2024-02-23T05:45:46;98871.63;;;3.92;88.72
80401;BME280;69727;53.132;8.230;2024-02-23T05:48:11;98878.34;;;3.88;89.43
80401;BME280;69727;53.132;8.230;2024-02-23T05:50:37;98867.53;;;3.89;89.08
80401;BME280;69727;53.132;8.230;2024-02-23T05:53:02;98871.38;;;3.87;89.07
80401;BME280;69727;53.132;8.230;2024-02-23T05:55:29;98884.88;;;3.85;89.84
80401;BME280;69727;53.132;8.230;2024-02-23T05:57:55;98886.25;;;3.75;90.39
80401;BME280;69727;53.132;8.230;2024-02-23T06:00:21;98886.88;;;3.70;90.42
80401;BME280;69727;53.132;8.230;2024-02-23T06:02:47;98898.50;;;3.69;90.89
80401;BME280;69727;53.132;8.230;2024-02-23T06:05:13;98893.59;;;3.73;90.14
80401;BME280;69727;53.132;8.230;2024-02-23T06:07:38;98898.72;;;3.74;89.58
80401;BME280;69727;53.132;8.230;2024-02-23T06:10:05;98909.31;;;3.68;90.04
80401;BME280;69727;53.132;8.230;2024-02-23T06:12:31;98896.47;;;3.71;89.57
80401;BME280;69727;53.132;8.230;2024-02-23T06:14:56;98909.31;;;3.68;89.54
80401;BME280;69727;53.132;8.230;2024-02-23T06:17:23;98911.31;;;3.66;89.83
80401;BME280;69727;53.132;8.230;2024-02-23T06:19:49;98927.66;;;3.63;89.53
80401;BME280;69727;53.132;8.230;2024-02-23T06:22:14;98925.56;;;3.58;89.61
80401;BME280;69727;53.132;8.230;2024-02-23T06:24:42;98923.00;;;3.71;89.67
80401;BME280;69727;53.132;8.230;2024-02-23T06:27:08;98921.56;;;3.69;88.71
80401;BME280;69727;53.132;8.230;2024-02-23T06:29:33;98929.53;;;3.69;88.73
80401;BME280;69727;53.132;8.230;2024-02-23T06:31:59;98941.94;;;3.62;89.42
80401;BME280;69727;53.132;8.230;2024-02-23T06:34:26;98936.88;;;3.73;88.86
80401;BME280;69727;53.132;8.230;2024-02-23T06:36:52;98936.50;;;3.76;89.07
80401;BME280;69727;53.132;8.230;2024-02-23T06:39:17;98952.88;;;3.86;88.46
80401;BME280;69727;53.132;8.230;2024-02-23T06:41:43;98948.19;;;3.88;88.24
80401;BME280;69727;53.132;8.230;2024-02-23T06:44:09;98946.59;;;4.01;87.22
80401;BME280;69727;53.132;8.230;2024-02-23T06:46:34;98946.59;;;4.01;87.43
80401;BME280;69727;53.132;8.230;2024-02-23T06:48:59;98935.97;;;4.01;86.60
80401;BME280;69727;53.132;8.230;2024-02-23T06:51:25;98955.38;;;4.01;86.53
80401;BME280;69727;53.132;8.230;2024-02-23T06:53:50;98969.69;;;4.07;86.09
80401;BME280;69727;53.132;8.230;2024-02-23T06:56:16;98959.34;;;4.18;85.07
80401;BME280;69727;53.132;8.230;2024-02-23T06:58:41;98965.66;;;4.17;86.12
80401;BME280;69727;53.132;8.230;2024-02-23T07:01:06;98964.63;;;4.18;85.52
80401;BME280;69727;53.132;8.230;2024-02-23T07:03:36;98971.38;;;4.21;85.24
80401;BME280;69727;53.132;8.230;2024-02-23T07:06:02;98984.28;;;4.24;84.80
80401;BME280;69727;53.132;8.230;2024-02-23T07:08:28;98990.81;;;4.28;84.24
80401;BME280;69727;53.132;8.230;2024-02-23T07:10:53;98981.81;;;4.29;83.75
80401;BME280;69727;53.132;8.230;2024-02-23T07:13:19;98987.56;;;4.26;84.03
80401;BME280;69727;53.132;8.230;2024-02-23T07:15:45;98989.22;;;4.33;83.43
80401;BME280;69727;53.132;8.230;2024-02-23T07:18:10;98994.31;;;4.35;83.45
80401;BME280;69727;53.132;8.230;2024-02-23T07:20:36;98999.03;;;4.40;82.63
80401;BME280;69727;53.132;8.230;2024-02-23T07:23:02;98998.41;;;4.38;82.97
80401;BME280;69727;53.132;8.230;2024-02-23T07:25:27;99006.56;;;4.36;83.24
80401;BME280;69727;53.132;8.230;2024-02-23T07:27:53;99003.13;;;4.49;82.17
80401;BME280;69727;53.132;8.230;2024-02-23T07:30:18;99008.66;;;4.47;82.34
80401;BME280;69727;53.132;8.230;2024-02-23T07:32:44;99011.34;;;4.54;82.56
80401;BME280;69727;53.132;8.230;2024-02-23T07:35:11;99019.53;;;4.65;81.74
80401;BME280;69727;53.132;8.230;2024-02-23T07:37:37;99022.00;;;4.73;81.78
80401;BME280;69727;53.132;8.230;2024-02-23T07:40:03;99011.59;;;4.85;80.60
80401;BME280;69727;53.132;8.230;2024-02-23T07:42:29;99029.38;;;4.85;80.10
80401;BME280;69727;53.132;8.230;2024-02-23T07:44:55;99017.53;;;4.81;81.03
80401;BME280;69727;53.132;8.230;2024-02-23T07:47:21;99017.72;;;4.86;79.92
80401;BME280;69727;53.132;8.230;2024-02-23T07:49:46;99025.91;;;4.84;80.79
80401;BME280;69727;53.132;8.230;2024-02-23T07:52:12;99020.19;;;4.81;81.14
80401;BME280;69727;53.132;8.230;2024-02-23T07:54:37;99020.59;;;4.84;81.15
80401;BME280;69727;53.132;8.230;2024-02-23T07:57:03;99019.81;;;4.90;80.05
80401;BME280;69727;53.132;8.230;2024-02-23T07:59:30;99022.47;;;4.90;80.14
80401;BME280;69727;53.132;8.230;2024-02-23T08:01:58;99019.56;;;4.92;80.67
80401;BME280;69727;53.132;8.230;2024-02-23T08:04:23;99023.28;;;4.97;80.01
80401;BME280;69727;53.132;8.230;2024-02-23T08:06:49;99020.81;;;5.09;79.58
80401;BME280;69727;53.132;8.230;2024-02-23T08:09:14;99018.97;;;5.09;79.54
80401;BME280;69727;53.132;8.230;2024-02-23T08:11:40;99035.16;;;5.14;79.49
80401;BME280;69727;53.132;8.230;2024-02-23T08:14:05;99035.97;;;5.22;78.80
80401;BME280;69727;53.132;8.230;2024-02-23T08:16:30;99034.13;;;5.22;79.08
80401;BME280;69727;53.132;8.230;2024-02-23T08:18:56;99044.78;;;5.29;78.94
80401;BME280;69727;53.132;8.230;2024-02-23T08:21:21;99031.66;;;5.34;78.83
80401;BME280;69727;53.132;8.230;2024-02-23T08:23:47;99041.47;;;5.40;79.00
80401;BME280;69727;53.132;8.230;2024-02-23T08:26:12;99039.44;;;5.42;78.81
80401;BME280;69727;53.132;8.230;2024-02-23T08:28:38;99043.53;;;5.44;78.13
80401;BME280;69727;53.132;8.230;2024-02-23T08:31:03;99048.66;;;5.46;78.27
80401;BME280;69727;53.132;8.230;2024-02-23T08:33:29;99055.59;;;5.47;78.38
80401;BME280;69727;53.132;8.230;2024-02-23T08:35:54;99040.88;;;5.51;78.16
80401;BME280;69727;53.132;8.230;2024-02-23T08:38:20;99042.69;;;5.64;78.19
80401;BME280;69727;53.132;8.230;2024-02-23T08:40:45;99058.88;;;5.69;77.60
80401;BME280;69727;53.132;8.230;2024-02-23T08:43:11;99055.59;;;5.73;77.90
80401;BME280;69727;53.132;8.230;2024-02-23T08:45:36;99054.56;;;5.81;77.19
80401;BME280;69727;53.132;8.230;2024-02-23T08:48:02;99050.84;;;5.82;76.53
80401;BME280;69727;53.132;8.230;2024-02-23T08:50:28;99051.09;;;5.74;77.08
80401;BME280;69727;53.132;8.230;2024-02-23T08:52:54;99054.13;;;5.84;77.40
80401;BME280;69727;53.132;8.230;2024-02-23T08:55:19;99052.50;;;5.83;76.90
80401;BME280;69727;53.132;8.230;2024-02-23T08:57:46;99044.91;;;5.86;77.00
80401;BME280;69727;53.132;8.230;2024-02-23T09:00:12;99052.72;;;5.95;77.29
80401;BME280;69727;53.132;8.230;2024-02-23T09:02:38;99063.16;;;6.03;76.70
80401;BME280;69727;53.132;8.230;2024-02-23T09:05:04;99064.53;;;6.12;75.71
80401;BME280;69727;53.132;8.230;2024-02-23T09:07:30;99062.53;;;6.07;75.40
80401;BME280;69727;53.132;8.230;2024-02-23T09:09:55;99059.59;;;6.22;74.28
80401;BME280;69727;53.132;8.230;2024-02-23T09:12:22;99053.25;;;6.23;74.71
80401;BME280;69727;53.132;8.230;2024-02-23T09:14:47;99065.28;;;6.32;73.99
80401;BME280;69727;53.132;8.230;2024-02-23T09:17:13;99053.00;;;6.38;74.22
80401;BME280;69727;53.132;8.230;2024-02-23T09:19:38;99057.06;;;6.40;74.33
80401;BME280;69727;53.132;8.230;2024-02-23T09:22:04;99059.69;;;6.47;73.70
80401;BME280;69727;53.132;8.230;2024-02-23T09:24:29;99057.84;;;6.47;72.71
80401;BME280;69727;53.132;8.230;2024-02-23T09:26:55;99062.38;;;6.47;73.66
80401;BME280;69727;53.132;8.230;2024-02-23T09:29:20;99056.81;;;6.48;73.41
80401;BME280;69727;53.132;8.230;2024-02-23T09:31:47;99061.31;;;6.54;73.41
80401;BME280;69727;53.132;8.230;2024-02-23T09:34:12;99069.72;;;6.58;72.43
80401;BME280;69727;53.132;8.230;2024-02-23T09:36:37;99068.66;;;6.65;72.65
80401;BME280;69727;53.132;8.230;2024-02-23T09:39:03;99077.25;;;6.67;73.06
80401;BME280;69727;53.132;8.230;2024-02-23T09:41:30;99083.59;;;6.66;72.25
80401;BME280;69727;53.132;8.230;2024-02-23T09:43:58;99068.22;;;6.68;70.08
80401;BME280;69727;53.132;8.230;2024-02-23T09:46:25;99080.13;;;6.66;70.73
80401;BME280;69727;53.132;8.230;2024-02-23T09:48:51;99092.38;;;6.74;70.19
80401;BME280;69727;53.132;8.230;2024-02-23T09:51:17;99082.38;;;6.69;70.50
80401;BME280;69727;53.132;8.230;2024-02-23T09:53:43;99091.34;;;6.75;70.30
80401;BME280;69727;53.132;8.230;2024-02-23T09:56:09;99092.34;;;6.80;71.00
80401;BME280;69727;53.132;8.230;2024-02-23T09:58:39;99105.72;;;6.74;69.36
80401;BME280;69727;53.132;8.230;2024-02-23T10:01:06;99103.66;;;6.76;69.04
80401;BME280;69727;53.132;8.230;2024-02-23T10:03:32;99104.53;;;6.69;68.09
80401;BME280;69727;53.132;8.230;2024-02-23T10:05:58;99107.41;;;6.68;68.16
80401;BME280;69727;53.132;8.230;2024-02-23T10:08:24;99116.22;;;6.68;68.58
80401;BME280;69727;53.132;8.230;2024-02-23T10:10:50;99121.13;;;6.72;68.72
80401;BME280;69727;53.132;8.230;2024-02-23T10:13:19;99113.13;;;6.72;68.56
80401;BME280;69727;53.132;8.230;2024-02-23T10:15:49;99120.53;;;6.69;68.73
80401;BME280;69727;53.132;8.230;2024-02-23T10:18:15;99122.59;;;6.61;68.61
80401;BME280;69727;53.132;8.230;2024-02-23T10:20:41;99128.53;;;6.69;69.02
80401;BME280;69727;53.132;8.230;2024-02-23T10:23:08;99133.44;;;6.73;69.08
80401;BME280;69727;53.132;8.230;2024-02-23T10:25:34;99130.78;;;6.73;69.20
80401;BME280;69727;53.132;8.230;2024-02-23T10:28:04;99131.78;;;6.78;69.80
80401;BME280;69727;53.132;8.230;2024-02-23T10:30:30;99133.63;;;6.78;68.16
80401;BME280;69727;53.132;8.230;2024-02-23T10:32:57;99130.94;;;6.78;67.98
80401;BME280;69727;53.132;8.230;2024-02-23T10:35:23;99130.09;;;6.84;68.55
80401;BME280;69727;53.132;8.230;2024-02-23T10:37:50;99132.94;;;6.89;67.97
80401;BME280;69727;53.132;8.230;2024-02-23T10:40:18;99137.66;;;6.93;67.90
80401;BME280;69727;53.132;8.230;2024-02-23T10:42:44;99147.88;;;6.96;67.73
80401;BME280;69727;53.132;8.230;2024-02-23T10:45:17;99133.69;;;7.02;66.30
80401;BME280;69727;53.132;8.230;2024-02-23T10:47:43;99146.66;;;6.99;65.73
80401;BME280;69727;53.132;8.230;2024-02-23T10:50:09;99142.13;;;6.99;66.11
80401;BME280;69727;53.132;8.230;2024-02-23T10:52:35;99157.28;;;7.05;66.33
80401;BME280;69727;53.132;8.230;2024-02-23T10:55:01;99148.25;;;7.06;66.31
80401;BME280;69727;53.132;8.230;2024-02-23T10:57:32;99151.91;;;7.12;66.39
80401;BME280;69727;53.132;8.230;2024-02-23T10:59:59;99153.06;;;7.23;65.71
80401;BME280;69727;53.132;8.230;2024-02-23T11:02:27;99144.44;;;7.27;65.22
80401;BME280;69727;53.132;8.230;2024-02-23T11:04:55;99148.78;;;7.22;65.49
80401;BME280;69727;53.132;8.230;2024-02-23T11:07:22;99146.91;;;7.29;65.69
80401;BME280;69727;53.132;8.230;2024-02-23T11:09:54;99148.13;;;7.26;65.34
80401;BME280;69727;53.132;8.230;2024-02-23T11:12:29;99143.84;;;7.25;65.41
80401;BME280;69727;53.132;8.230;2024-02-23T11:14:59;99138.84;;;7.35;65.12
80401;BME280;69727;53.132;8.230;2024-02-23T11:17:32;99136.75;;;7.37;64.13
80401;BME280;69727;53.132;8.230;2024-02-23T11:19:58;99136.94;;;7.42;64.50
80401;BME280;69727;53.132;8.230;2024-02-23T11:22:30;99136.72;;;7.44;64.31
80401;BME280;69727;53.132;8.230;2024-02-23T11:25:00;99134.81;;;7.51;64.15
80401;BME280;69727;53.132;8.230;2024-02-23T11:27:30;99142.47;;;7.47;63.60
80401;BME280;69727;53.132;8.230;2024-02-23T11:32:58;99133.84;;;7.45;63.60
80401;BME280;69727;53.132;8.230;2024-02-23T11:35:25;99140.47;;;7.36;63.61
80401;BME280;69727;53.132;8.230;2024-02-23T11:37:53;99144.41;;;7.34;64.24
80401;BME280;69727;53.132;8.230;2024-02-23T11:40:27;99154.66;;;7.30;64.54
80401;BME280;69727;53.132;8.230;2024-02-23T11:42:54;99152.66;;;7.26;64.42
80401;BME280;69727;53.132;8.230;2024-02-23T11:45:20;99143.84;;;7.25;65.24
80401;BME280;69727;53.132;8.230;2024-02-23T11:47:46;99139.97;;;7.21;65.74
80401;BME280;69727;53.132;8.230;2024-02-23T11:50:11;99144.47;;;7.21;65.77
80401;BME280;69727;53.132;8.230;2024-02-23T11:52:40;99154.13;;;7.22;65.19
80401;BME280;69727;53.132;8.230;2024-02-23T11:55:06;99149.38;;;7.24;66.02
80401;BME280;69727;53.132;8.230;2024-02-23T11:57:33;99140.94;;;7.27;66.40
80401;BME280;69727;53.132;8.230;2024-02-23T12:00:01;99154.72;;;7.24;66.21
80401;BME280;69727;53.132;8.230;2024-02-23T12:02:27;99132.22;;;7.13;65.67
80401;BME280;69727;53.132;8.230;2024-02-23T12:04:53;99147.97;;;7.21;65.34
80401;BME280;69727;53.132;8.230;2024-02-23T12:07:18;99142.44;;;7.16;65.82
80401;BME280;69727;53.132;8.230;2024-02-23T12:09:45;99140.78;;;7.15;66.18
80401;BME280;69727;53.132;8.230;2024-02-23T12:12:10;99156.03;;;7.15;65.84
80401;BME280;69727;53.132;8.230;2024-02-23T12:14:36;99156.03;;;7.15;66.51
80401;BME280;69727;53.132;8.230;2024-02-23T12:17:02;99135.09;;;7.12;66.76
80401;BME280;69727;53.132;8.230;2024-02-23T12:19:29;99131.91;;;7.28;65.68
80401;BME280;69727;53.132;8.230;2024-02-23T12:22:02;99134.09;;;7.37;65.76
80401;BME280;69727;53.132;8.230;2024-02-23T12:24:29;99148.31;;;7.63;65.21
80401;BME280;69727;53.132;8.230;2024-02-23T12:26:55;99148.25;;;7.69;64.53
80401;BME280;69727;53.132;8.230;2024-02-23T12:29:20;99137.66;;;7.81;64.57
80401;BME280;69727;53.132;8.230;2024-02-23T12:31:46;99134.19;;;7.80;63.73
80401;BME280;69727;53.132;8.230;2024-02-23T12:34:12;99146.47;;;8.06;64.13
80401;BME280;69727;53.132;8.230;2024-02-23T12:36:39;99131.47;;;8.48;62.20
80401;BME280;69727;53.132;8.230;2024-02-23T12:39:04;99120.44;;;8.93;60.41
80401;BME280;69727;53.132;8.230;2024-02-23T12:41:30;99127.03;;;9.09;59.36
80401;BME280;69727;53.132;8.230;2024-02-23T12:43:55;99123.41;;;9.44;58.94
80401;BME280;69727;53.132;8.230;2024-02-23T12:46:20;99114.56;;;9.56;58.58
80401;BME280;69727;53.132;8.230;2024-02-23T12:48:46;99135.41;;;9.54;57.25
80401;BME280;69727;53.132;8.230;2024-02-23T12:51:11;99137.47;;;9.40;57.60
80401;BME280;69727;53.132;8.230;2024-02-23T12:53:39;99106.25;;;9.34;58.32
80401;BME280;69727;53.132;8.230;2024-02-23T12:56:09;99130.75;;;9.61;57.44
80401;BME280;69727;53.132;8.230;2024-02-23T12:58:41;99128.50;;;9.34;58.50
80401;BME280;69727;53.132;8.230;2024-02-23T13:01:07;99120.84;;;9.08;58.41
80401;BME280;69727;53.132;8.230;2024-02-23T13:03:34;99138.94;;;8.76;59.06
80401;BME280;69727;53.132;8.230;2024-02-23T13:06:00;99140.31;;;8.67;60.40